sensor_id;sensor_type;location;lat;lon;timestamp;P1;durP1;ratioP1;P2;durP2;ratioP2
50533;SDS011;60631;49.236;8.398;2022-09-02T00:00:34;3.60;;;3.30;;
50533;SDS011;60631;49.236;8.398;2022-09-02T00:03:35;3.60;;;3.30;;
50533;SDS011;60631;49.236;8.398;2022-09-02T00:06:36;3.70;;;3.40;;
50533;SDS011;60631;49.236;8.398;2022-09-02T00:09:37;3.65;;;3.30;;
50533;SDS011;60631;49.236;8.398;2022-09-02T00:12:40;3.80;;;3.50;;
50533;SDS011;60631;49.236;8.398;2022-09-02T00:15:41;4.05;;;3.50;;
50533;SDS011;60631;49.236;8.398;2022-09-02T00:18:42;3.80;;;3.40;;
50533;SDS011;60631;49.236;8.398;2022-09-02T00:21:44;4.78;;;3.85;;
50533;SDS011;60631;49.236;8.398;2022-09-02T00:24:45;4.18;;;3.78;;
50533;SDS011;60631;49.236;8.398;2022-09-02T00:27:46;4.75;;;3.70;;
50533;SDS011;60631;49.236;8.398;2022-09-02T00:30:47;4.05;;;3.65;;
50533;SDS011;60631;49.236;8.398;2022-09-02T00:33:48;4.85;;;4.35;;
50533;SDS011;60631;49.236;8.398;2022-09-02T00:36:51;4.05;;;3.70;;
50533;SDS011;60631;49.236;8.398;2022-09-02T00:39:52;4.30;;;3.90;;
50533;SDS011;60631;49.236;8.398;2022-09-02T00:42:53;4.00;;;3.70;;
50533;SDS011;60631;49.236;8.398;2022-09-02T00:45:55;4.43;;;4.13;;
50533;SDS011;60631;49.236;8.398;2022-09-02T00:52:38;4.75;;;4.28;;
50533;SDS011;60631;49.236;8.398;2022-09-02T00:55:42;4.65;;;4.25;;
50533;SDS011;60631;49.236;8.398;2022-09-02T00:58:44;4.72;;;4.28;;
50533;SDS011;60631;49.236;8.398;2022-09-02T01:01:46;4.18;;;3.78;;
50533;SDS011;60631;49.236;8.398;2022-09-02T01:04:47;4.47;;;4.07;;
50533;SDS011;60631;49.236;8.398;2022-09-02T01:07:48;4.22;;;3.92;;
50533;SDS011;60631;49.236;8.398;2022-09-02T01:10:51;4.07;;;3.65;;
50533;SDS011;60631;49.236;8.398;2022-09-02T01:13:55;4.50;;;4.10;;
50533;SDS011;60631;49.236;8.398;2022-09-02T01:16:57;4.97;;;3.53;;
50533;SDS011;60631;49.236;8.398;2022-09-02T01:20:05;4.13;;;3.72;;
50533;SDS011;60631;49.236;8.398;2022-09-02T01:23:11;4.13;;;3.72;;
50533;SDS011;60631;49.236;8.398;2022-09-02T01:26:13;4.75;;;3.70;;
50533;SDS011;60631;49.236;8.398;2022-09-02T01:29:15;4.28;;;3.85;;
50533;SDS011;60631;49.236;8.398;2022-09-02T01:32:16;5.00;;;4.00;;
50533;SDS011;60631;49.236;8.398;2022-09-02T01:35:17;4.72;;;4.32;;
50533;SDS011;60631;49.236;8.398;2022-09-02T01:38:18;4.45;;;4.15;;
50533;SDS011;60631;49.236;8.398;2022-09-02T01:41:20;4.72;;;3.60;;
50533;SDS011;60631;49.236;8.398;2022-09-02T01:44:21;4.38;;;3.92;;
50533;SDS011;60631;49.236;8.398;2022-09-02T01:47:23;4.15;;;3.75;;
50533;SDS011;60631;49.236;8.398;2022-09-02T01:50:25;4.38;;;3.97;;
50533;SDS011;60631;49.236;8.398;2022-09-02T01:53:26;4.45;;;4.05;;
50533;SDS011;60631;49.236;8.398;2022-09-02T01:56:28;4.50;;;4.10;;
50533;SDS011;60631;49.236;8.398;2022-09-02T01:59:29;4.35;;;4.00;;
50533;SDS011;60631;49.236;8.398;2022-09-02T02:02:30;4.78;;;4.25;;
50533;SDS011;60631;49.236;8.398;2022-09-02T02:08:51;4.53;;;3.70;;
50533;SDS011;60631;49.236;8.398;2022-09-02T02:11:52;4.80;;;4.22;;
50533;SDS011;60631;49.236;8.398;2022-09-02T02:14:54;3.78;;;3.30;;
50533;SDS011;60631;49.236;8.398;2022-09-02T02:17:55;5.20;;;4.80;;
50533;SDS011;60631;49.236;8.398;2022-09-02T02:20:56;4.57;;;4.18;;
50533;SDS011;60631;49.236;8.398;2022-09-02T02:23:57;4.18;;;3.88;;
50533;SDS011;60631;49.236;8.398;2022-09-02T02:30:03;4.20;;;3.80;;
50533;SDS011;60631;49.236;8.398;2022-09-02T02:33:05;4.32;;;4.00;;
50533;SDS011;60631;49.236;8.398;2022-09-02T02:36:06;4.53;;;4.13;;
50533;SDS011;60631;49.236;8.398;2022-09-02T02:39:08;4.55;;;4.15;;
50533;SDS011;60631;49.236;8.398;2022-09-02T02:42:10;4.78;;;4.38;;
50533;SDS011;60631;49.236;8.398;2022-09-02T02:45:14;5.25;;;4.70;;
50533;SDS011;60631;49.236;8.398;2022-09-02T02:48:15;6.40;;;4.22;;
50533;SDS011;60631;49.236;8.398;2022-09-02T02:51:16;4.57;;;4.18;;
50533;SDS011;60631;49.236;8.398;2022-09-02T02:54:18;4.93;;;4.43;;
50533;SDS011;60631;49.236;8.398;2022-09-02T02:57:19;5.40;;;4.55;;
50533;SDS011;60631;49.236;8.398;2022-09-02T03:00:25;4.97;;;4.30;;
50533;SDS011;60631;49.236;8.398;2022-09-02T03:03:28;5.50;;;4.68;;
50533;SDS011;60631;49.236;8.398;2022-09-02T03:06:29;4.32;;;3.85;;
50533;SDS011;60631;49.236;8.398;2022-09-02T03:09:30;4.20;;;3.80;;
50533;SDS011;60631;49.236;8.398;2022-09-02T03:12:31;4.47;;;4.10;;
50533;SDS011;60631;49.236;8.398;2022-09-02T03:15:32;4.32;;;3.92;;
50533;SDS011;60631;49.236;8.398;2022-09-02T03:18:33;4.28;;;3.92;;
50533;SDS011;60631;49.236;8.398;2022-09-02T03:21:35;4.30;;;3.90;;
50533;SDS011;60631;49.236;8.398;2022-09-02T03:24:36;4.32;;;3.97;;
50533;SDS011;60631;49.236;8.398;2022-09-02T03:27:37;4.47;;;3.90;;
50533;SDS011;60631;49.236;8.398;2022-09-02T03:30:39;4.88;;;4.35;;
50533;SDS011;60631;49.236;8.398;2022-09-02T03:33:41;3.90;;;3.60;;
50533;SDS011;60631;49.236;8.398;2022-09-02T03:36:42;4.10;;;3.80;;
50533;SDS011;60631;49.236;8.398;2022-09-02T03:39:44;4.15;;;3.83;;
50533;SDS011;60631;49.236;8.398;2022-09-02T03:42:45;4.70;;;3.88;;
50533;SDS011;60631;49.236;8.398;2022-09-02T03:45:46;5.38;;;4.05;;
50533;SDS011;60631;49.236;8.398;2022-09-02T03:48:47;4.13;;;3.75;;
50533;SDS011;60631;49.236;8.398;2022-09-02T03:51:51;4.15;;;3.50;;
50533;SDS011;60631;49.236;8.398;2022-09-02T03:54:52;4.03;;;3.72;;
50533;SDS011;60631;49.236;8.398;2022-09-02T03:57:53;4.07;;;3.55;;
50533;SDS011;60631;49.236;8.398;2022-09-02T04:00:54;4.72;;;3.95;;
50533;SDS011;60631;49.236;8.398;2022-09-02T04:03:55;4.47;;;4.03;;
50533;SDS011;60631;49.236;8.398;2022-09-02T04:06:56;4.25;;;3.85;;
50533;SDS011;60631;49.236;8.398;2022-09-02T04:09:58;4.07;;;3.28;;
50533;SDS011;60631;49.236;8.398;2022-09-02T04:12:59;4.65;;;4.25;;
50533;SDS011;60631;49.236;8.398;2022-09-02T04:16:11;4.18;;;3.78;;
50533;SDS011;60631;49.236;8.398;2022-09-02T04:23:47;4.03;;;3.72;;
50533;SDS011;60631;49.236;8.398;2022-09-02T04:26:48;3.63;;;3.33;;
50533;SDS011;60631;49.236;8.398;2022-09-02T04:29:49;4.35;;;3.95;;
50533;SDS011;60631;49.236;8.398;2022-09-02T04:32:51;4.03;;;3.50;;
50533;SDS011;60631;49.236;8.398;2022-09-02T04:35:52;4.70;;;3.83;;
50533;SDS011;60631;49.236;8.398;2022-09-02T04:38:53;5.03;;;3.78;;
50533;SDS011;60631;49.236;8.398;2022-09-02T04:41:55;6.70;;;3.65;;
50533;SDS011;60631;49.236;8.398;2022-09-02T04:44:56;3.90;;;3.60;;
50533;SDS011;60631;49.236;8.398;2022-09-02T04:47:57;5.15;;;3.92;;
50533;SDS011;60631;49.236;8.398;2022-09-02T04:51:02;4.22;;;3.83;;
50533;SDS011;60631;49.236;8.398;2022-09-02T04:54:05;3.90;;;3.60;;
50533;SDS011;60631;49.236;8.398;2022-09-02T04:57:07;4.00;;;3.70;;
50533;SDS011;60631;49.236;8.398;2022-09-02T05:00:08;4.55;;;3.80;;
50533;SDS011;60631;49.236;8.398;2022-09-02T05:03:09;4.25;;;3.80;;
50533;SDS011;60631;49.236;8.398;2022-09-02T05:06:13;5.63;;;3.80;;
50533;SDS011;60631;49.236;8.398;2022-09-02T05:09:16;4.30;;;3.90;;
50533;SDS011;60631;49.236;8.398;2022-09-02T05:12:18;4.70;;;3.78;;
50533;SDS011;60631;49.236;8.398;2022-09-02T05:15:19;4.15;;;3.75;;
50533;SDS011;60631;49.236;8.398;2022-09-02T05:18:20;4.60;;;3.92;;
50533;SDS011;60631;49.236;8.398;2022-09-02T05:21:21;6.95;;;3.40;;
50533;SDS011;60631;49.236;8.398;2022-09-02T05:24:24;4.90;;;3.50;;
50533;SDS011;60631;49.236;8.398;2022-09-02T05:27:25;4.63;;;3.88;;
50533;SDS011;60631;49.236;8.398;2022-09-02T05:30:26;3.55;;;3.13;;
50533;SDS011;60631;49.236;8.398;2022-09-02T05:33:27;3.47;;;3.17;;
50533;SDS011;60631;49.236;8.398;2022-09-02T05:36:28;3.42;;;3.10;;
50533;SDS011;60631;49.236;8.398;2022-09-02T05:39:32;3.72;;;3.42;;
50533;SDS011;60631;49.236;8.398;2022-09-02T05:42:33;5.22;;;3.58;;
50533;SDS011;60631;49.236;8.398;2022-09-02T05:45:36;4.10;;;3.70;;
50533;SDS011;60631;49.236;8.398;2022-09-02T05:48:37;3.67;;;3.35;;
50533;SDS011;60631;49.236;8.398;2022-09-02T05:51:57;3.10;;;2.83;;
50533;SDS011;60631;49.236;8.398;2022-09-02T05:54:59;3.38;;;3.08;;
50533;SDS011;60631;49.236;8.398;2022-09-02T05:58:00;3.65;;;3.20;;
50533;SDS011;60631;49.236;8.398;2022-09-02T06:01:09;3.53;;;3.15;;
50533;SDS011;60631;49.236;8.398;2022-09-02T06:04:11;3.63;;;3.33;;
50533;SDS011;60631;49.236;8.398;2022-09-02T06:07:12;3.47;;;3.17;;
50533;SDS011;60631;49.236;8.398;2022-09-02T06:10:14;3.35;;;3.05;;
50533;SDS011;60631;49.236;8.398;2022-09-02T06:13:15;3.40;;;3.13;;
50533;SDS011;60631;49.236;8.398;2022-09-02T06:16:19;3.92;;;3.28;;
50533;SDS011;60631;49.236;8.398;2022-09-02T06:19:21;3.60;;;3.30;;
50533;SDS011;60631;49.236;8.398;2022-09-02T06:22:24;3.42;;;3.13;;
50533;SDS011;60631;49.236;8.398;2022-09-02T06:25:25;3.50;;;3.20;;
50533;SDS011;60631;49.236;8.398;2022-09-02T06:28:27;3.50;;;3.20;;
50533;SDS011;60631;49.236;8.398;2022-09-02T06:31:28;3.30;;;3.10;;
50533;SDS011;60631;49.236;8.398;2022-09-02T06:34:29;3.67;;;3.13;;
50533;SDS011;60631;49.236;8.398;2022-09-02T06:37:30;3.60;;;3.30;;
50533;SDS011;60631;49.236;8.398;2022-09-02T06:40:31;3.00;;;2.80;;
50533;SDS011;60631;49.236;8.398;2022-09-02T06:43:32;4.25;;;3.22;;
50533;SDS011;60631;49.236;8.398;2022-09-02T06:46:35;4.22;;;2.95;;
50533;SDS011;60631;49.236;8.398;2022-09-02T06:49:37;3.20;;;2.90;;
50533;SDS011;60631;49.236;8.398;2022-09-02T06:52:39;3.00;;;2.58;;
50533;SDS011;60631;49.236;8.398;2022-09-02T06:55:41;3.42;;;3.13;;
50533;SDS011;60631;49.236;8.398;2022-09-02T06:58:43;3.92;;;2.90;;
50533;SDS011;60631;49.236;8.398;2022-09-02T07:01:45;3.20;;;2.90;;
50533;SDS011;60631;49.236;8.398;2022-09-02T07:04:46;2.90;;;2.70;;
50533;SDS011;60631;49.236;8.398;2022-09-02T07:08:25;2.75;;;2.55;;
50533;SDS011;60631;49.236;8.398;2022-09-02T07:11:26;2.85;;;2.65;;
50533;SDS011;60631;49.236;8.398;2022-09-02T07:14:27;4.10;;;2.70;;
50533;SDS011;60631;49.236;8.398;2022-09-02T07:17:28;2.70;;;2.50;;
50533;SDS011;60631;49.236;8.398;2022-09-02T07:20:30;3.80;;;2.50;;
50533;SDS011;60631;49.236;8.398;2022-09-02T07:23:31;2.50;;;2.22;;
50533;SDS011;60631;49.236;8.398;2022-09-02T07:26:32;3.97;;;2.40;;
50533;SDS011;60631;49.236;8.398;2022-09-02T07:29:33;3.13;;;2.30;;
50533;SDS011;60631;49.236;8.398;2022-09-02T07:32:35;2.90;;;2.22;;
50533;SDS011;60631;49.236;8.398;2022-09-02T07:35:36;4.78;;;2.25;;
50533;SDS011;60631;49.236;8.398;2022-09-02T07:38:38;2.40;;;2.20;;
50533;SDS011;60631;49.236;8.398;2022-09-02T07:41:41;3.47;;;2.17;;
50533;SDS011;60631;49.236;8.398;2022-09-02T07:44:43;3.25;;;2.20;;
50533;SDS011;60631;49.236;8.398;2022-09-02T07:47:44;2.67;;;2.13;;
50533;SDS011;60631;49.236;8.398;2022-09-02T07:50:45;3.00;;;2.15;;
50533;SDS011;60631;49.236;8.398;2022-09-02T07:53:47;2.72;;;2.03;;
50533;SDS011;60631;49.236;8.398;2022-09-02T07:56:50;2.60;;;2.40;;
50533;SDS011;60631;49.236;8.398;2022-09-02T07:59:51;2.20;;;2.00;;
50533;SDS011;60631;49.236;8.398;2022-09-02T08:02:52;3.17;;;1.67;;
50533;SDS011;60631;49.236;8.398;2022-09-02T08:05:53;2.03;;;1.70;;
50533;SDS011;60631;49.236;8.398;2022-09-02T08:08:56;2.10;;;1.85;;
50533;SDS011;60631;49.236;8.398;2022-09-02T08:11:57;2.53;;;2.00;;
50533;SDS011;60631;49.236;8.398;2022-09-02T08:14:58;3.83;;;1.88;;
50533;SDS011;60631;49.236;8.398;2022-09-02T08:18:00;1.83;;;1.73;;
50533;SDS011;60631;49.236;8.398;2022-09-02T08:21:01;2.50;;;1.63;;
50533;SDS011;60631;49.236;8.398;2022-09-02T08:24:02;1.70;;;1.40;;
50533;SDS011;60631;49.236;8.398;2022-09-02T08:27:03;1.80;;;1.70;;
50533;SDS011;60631;49.236;8.398;2022-09-02T08:30:06;1.98;;;1.88;;
50533;SDS011;60631;49.236;8.398;2022-09-02T08:33:11;1.65;;;1.50;;
50533;SDS011;60631;49.236;8.398;2022-09-02T08:36:12;1.60;;;1.50;;
50533;SDS011;60631;49.236;8.398;2022-09-02T08:39:14;2.03;;;1.60;;
50533;SDS011;60631;49.236;8.398;2022-09-02T08:48:38;2.63;;;1.73;;
50533;SDS011;60631;49.236;8.398;2022-09-02T08:51:46;1.60;;;1.50;;
50533;SDS011;60631;49.236;8.398;2022-09-02T08:54:57;2.13;;;1.48;;
50533;SDS011;60631;49.236;8.398;2022-09-02T08:57:58;1.80;;;1.40;;
50533;SDS011;60631;49.236;8.398;2022-09-02T09:01:36;2.72;;;1.60;;
50533;SDS011;60631;49.236;8.398;2022-09-02T09:11:03;3.00;;;1.40;;
50533;SDS011;60631;49.236;8.398;2022-09-02T09:17:21;1.33;;;1.23;;
50533;SDS011;60631;49.236;8.398;2022-09-02T09:20:30;1.40;;;1.30;;
50533;SDS011;60631;49.236;8.398;2022-09-02T09:23:35;1.63;;;1.30;;
50533;SDS011;60631;49.236;8.398;2022-09-02T09:29:39;2.28;;;1.40;;
50533;SDS011;60631;49.236;8.398;2022-09-02T09:32:42;3.10;;;1.48;;
50533;SDS011;60631;49.236;8.398;2022-09-02T09:35:47;1.58;;;1.48;;
50533;SDS011;60631;49.236;8.398;2022-09-02T09:38:53;3.88;;;1.20;;
50533;SDS011;60631;49.236;8.398;2022-09-02T09:41:58;2.20;;;1.35;;
50533;SDS011;60631;49.236;8.398;2022-09-02T09:45:47;2.67;;;1.30;;
50533;SDS011;60631;49.236;8.398;2022-09-02T09:48:27;1.80;;;1.00;;
50533;SDS011;60631;49.236;8.398;2022-09-02T09:51:33;1.50;;;1.30;;
50533;SDS011;60631;49.236;8.398;2022-09-02T09:54:34;6.32;;;1.40;;
50533;SDS011;60631;49.236;8.398;2022-09-02T09:57:35;3.80;;;1.20;;
50533;SDS011;60631;49.236;8.398;2022-09-02T10:00:38;3.40;;;1.42;;
50533;SDS011;60631;49.236;8.398;2022-09-02T10:03:40;2.10;;;1.20;;
50533;SDS011;60631;49.236;8.398;2022-09-02T10:06:43;1.85;;;1.10;;
50533;SDS011;60631;49.236;8.398;2022-09-02T10:09:44;2.00;;;1.10;;
50533;SDS011;60631;49.236;8.398;2022-09-02T10:12:46;2.95;;;1.52;;
50533;SDS011;60631;49.236;8.398;2022-09-02T10:19:38;1.42;;;1.10;;
50533;SDS011;60631;49.236;8.398;2022-09-02T10:29:37;2.45;;;1.02;;
50533;SDS011;60631;49.236;8.398;2022-09-02T10:36:15;1.35;;;1.23;;
50533;SDS011;60631;49.236;8.398;2022-09-02T10:39:27;1.50;;;1.20;;
50533;SDS011;60631;49.236;8.398;2022-09-02T10:42:46;2.92;;;1.38;;
50533;SDS011;60631;49.236;8.398;2022-09-02T10:45:54;2.33;;;1.08;;
50533;SDS011;60631;49.236;8.398;2022-09-02T10:49:06;2.10;;;1.20;;
50533;SDS011;60631;49.236;8.398;2022-09-02T10:52:35;1.90;;;1.33;;
50533;SDS011;60631;49.236;8.398;2022-09-02T10:55:58;1.50;;;1.20;;
50533;SDS011;60631;49.236;8.398;2022-09-02T10:59:09;1.70;;;1.20;;
50533;SDS011;60631;49.236;8.398;2022-09-02T11:02:15;1.58;;;1.10;;
50533;SDS011;60631;49.236;8.398;2022-09-02T11:05:27;1.50;;;0.98;;
50533;SDS011;60631;49.236;8.398;2022-09-02T11:08:48;1.30;;;1.10;;
50533;SDS011;60631;49.236;8.398;2022-09-02T11:18:44;1.08;;;1.02;;
50533;SDS011;60631;49.236;8.398;2022-09-02T11:25:10;1.52;;;0.90;;
50533;SDS011;60631;49.236;8.398;2022-09-02T11:31:26;2.13;;;0.80;;
50533;SDS011;60631;49.236;8.398;2022-09-02T11:34:37;1.52;;;0.90;;
50533;SDS011;60631;49.236;8.398;2022-09-02T11:37:48;1.48;;;0.90;;
50533;SDS011;60631;49.236;8.398;2022-09-02T11:53:39;2.25;;;1.05;;
50533;SDS011;60631;49.236;8.398;2022-09-02T11:56:42;1.50;;;0.90;;
50533;SDS011;60631;49.236;8.398;2022-09-02T12:06:07;0.98;;;0.88;;
50533;SDS011;60631;49.236;8.398;2022-09-02T12:09:10;1.70;;;0.88;;
50533;SDS011;60631;49.236;8.398;2022-09-02T12:15:37;3.40;;;1.05;;
50533;SDS011;60631;49.236;8.398;2022-09-02T12:25:36;1.92;;;0.95;;
50533;SDS011;60631;49.236;8.398;2022-09-02T12:28:41;0.90;;;0.90;;
50533;SDS011;60631;49.236;8.398;2022-09-02T12:31:46;2.58;;;1.00;;
50533;SDS011;60631;49.236;8.398;2022-09-02T12:34:51;1.40;;;0.85;;
50533;SDS011;60631;49.236;8.398;2022-09-02T12:41:19;1.15;;;0.80;;
50533;SDS011;60631;49.236;8.398;2022-09-02T12:44:24;1.70;;;0.98;;
50533;SDS011;60631;49.236;8.398;2022-09-02T12:50:57;3.15;;;1.13;;
50533;SDS011;60631;49.236;8.398;2022-09-02T12:53:59;1.58;;;0.82;;
50533;SDS011;60631;49.236;8.398;2022-09-02T12:57:01;1.23;;;0.98;;
50533;SDS011;60631;49.236;8.398;2022-09-02T13:00:03;1.17;;;0.70;;
50533;SDS011;60631;49.236;8.398;2022-09-02T13:06:55;1.00;;;0.88;;
50533;SDS011;60631;49.236;8.398;2022-09-02T13:13:27;0.80;;;0.80;;
50533;SDS011;60631;49.236;8.398;2022-09-02T13:33:37;2.15;;;0.70;;
50533;SDS011;60631;49.236;8.398;2022-09-02T13:36:42;1.30;;;0.73;;
50533;SDS011;60631;49.236;8.398;2022-09-02T13:39:44;3.20;;;0.73;;
50533;SDS011;60631;49.236;8.398;2022-09-02T13:42:52;0.88;;;0.63;;
50533;SDS011;60631;49.236;8.398;2022-09-02T13:45:58;0.70;;;0.70;;
50533;SDS011;60631;49.236;8.398;2022-09-02T13:49:01;0.60;;;0.60;;
50533;SDS011;60631;49.236;8.398;2022-09-02T13:52:02;1.15;;;0.70;;
50533;SDS011;60631;49.236;8.398;2022-09-02T13:55:05;1.35;;;0.75;;
50533;SDS011;60631;49.236;8.398;2022-09-02T13:58:14;1.02;;;0.60;;
50533;SDS011;60631;49.236;8.398;2022-09-02T14:04:24;0.80;;;0.50;;
50533;SDS011;60631;49.236;8.398;2022-09-02T14:07:27;0.60;;;0.60;;
50533;SDS011;60631;49.236;8.398;2022-09-02T14:10:31;1.85;;;0.55;;
50533;SDS011;60631;49.236;8.398;2022-09-02T14:13:33;0.60;;;0.60;;
50533;SDS011;60631;49.236;8.398;2022-09-02T14:16:35;0.50;;;0.50;;
50533;SDS011;60631;49.236;8.398;2022-09-02T14:19:36;1.00;;;0.70;;
50533;SDS011;60631;49.236;8.398;2022-09-02T14:22:37;1.33;;;0.60;;
50533;SDS011;60631;49.236;8.398;2022-09-02T14:25:47;0.70;;;0.70;;
50533;SDS011;60631;49.236;8.398;2022-09-02T14:28:50;1.95;;;0.82;;
50533;SDS011;60631;49.236;8.398;2022-09-02T14:32:10;0.98;;;0.70;;
50533;SDS011;60631;49.236;8.398;2022-09-02T14:35:20;0.80;;;0.80;;
50533;SDS011;60631;49.236;8.398;2022-09-02T14:38:23;2.35;;;0.60;;
50533;SDS011;60631;49.236;8.398;2022-09-02T14:41:26;1.13;;;0.52;;
50533;SDS011;60631;49.236;8.398;2022-09-02T14:44:33;0.70;;;0.70;;
50533;SDS011;60631;49.236;8.398;2022-09-02T14:47:36;1.23;;;0.50;;
50533;SDS011;60631;49.236;8.398;2022-09-02T14:50:38;0.50;;;0.50;;
50533;SDS011;60631;49.236;8.398;2022-09-02T14:53:39;0.70;;;0.50;;
50533;SDS011;60631;49.236;8.398;2022-09-02T14:59:54;1.00;;;0.43;;
50533;SDS011;60631;49.236;8.398;2022-09-02T15:02:56;1.70;;;0.63;;
50533;SDS011;60631;49.236;8.398;2022-09-02T15:05:58;0.50;;;0.50;;
50533;SDS011;60631;49.236;8.398;2022-09-02T15:08:59;0.60;;;0.60;;
50533;SDS011;60631;49.236;8.398;2022-09-02T15:12:01;1.52;;;0.80;;
50533;SDS011;60631;49.236;8.398;2022-09-02T15:15:02;1.03;;;0.60;;
50533;SDS011;60631;49.236;8.398;2022-09-02T15:18:04;1.48;;;0.73;;
50533;SDS011;60631;49.236;8.398;2022-09-02T15:21:05;0.65;;;0.60;;
50533;SDS011;60631;49.236;8.398;2022-09-02T15:24:06;0.52;;;0.52;;
50533;SDS011;60631;49.236;8.398;2022-09-02T15:27:07;0.50;;;0.50;;
50533;SDS011;60631;49.236;8.398;2022-09-02T15:30:09;1.57;;;0.90;;
50533;SDS011;60631;49.236;8.398;2022-09-02T15:33:10;0.50;;;0.50;;
50533;SDS011;60631;49.236;8.398;2022-09-02T15:36:11;0.88;;;0.50;;
50533;SDS011;60631;49.236;8.398;2022-09-02T15:39:12;0.70;;;0.57;;
50533;SDS011;60631;49.236;8.398;2022-09-02T15:42:14;2.90;;;0.70;;
50533;SDS011;60631;49.236;8.398;2022-09-02T15:45:17;0.93;;;0.57;;
50533;SDS011;60631;49.236;8.398;2022-09-02T15:48:18;0.95;;;0.60;;
50533;SDS011;60631;49.236;8.398;2022-09-02T15:51:20;0.77;;;0.50;;
50533;SDS011;60631;49.236;8.398;2022-09-02T15:54:23;0.60;;;0.60;;
50533;SDS011;60631;49.236;8.398;2022-09-02T15:57:24;1.30;;;0.60;;
50533;SDS011;60631;49.236;8.398;2022-09-02T16:00:25;2.13;;;0.70;;
50533;SDS011;60631;49.236;8.398;2022-09-02T16:03:26;0.57;;;0.55;;
50533;SDS011;60631;49.236;8.398;2022-09-02T16:06:27;1.45;;;0.57;;
50533;SDS011;60631;49.236;8.398;2022-09-02T16:12:31;1.98;;;0.70;;
50533;SDS011;60631;49.236;8.398;2022-09-02T16:15:32;1.10;;;0.80;;
50533;SDS011;60631;49.236;8.398;2022-09-02T16:18:33;1.40;;;0.80;;
50533;SDS011;60631;49.236;8.398;2022-09-02T16:21:35;2.67;;;0.70;;
50533;SDS011;60631;49.236;8.398;2022-09-02T16:24:40;0.93;;;0.77;;
50533;SDS011;60631;49.236;8.398;2022-09-02T16:27:41;1.15;;;0.70;;
50533;SDS011;60631;49.236;8.398;2022-09-02T16:30:51;0.73;;;0.65;;
50533;SDS011;60631;49.236;8.398;2022-09-02T16:36:57;1.35;;;0.73;;
50533;SDS011;60631;49.236;8.398;2022-09-02T16:39:59;0.50;;;0.50;;
50533;SDS011;60631;49.236;8.398;2022-09-02T16:43:00;1.25;;;0.90;;
50533;SDS011;60631;49.236;8.398;2022-09-02T16:46:01;1.58;;;0.70;;
50533;SDS011;60631;49.236;8.398;2022-09-02T16:49:02;0.95;;;0.75;;
50533;SDS011;60631;49.236;8.398;2022-09-02T16:52:04;1.67;;;0.80;;
50533;SDS011;60631;49.236;8.398;2022-09-02T16:55:05;0.85;;;0.82;;
50533;SDS011;60631;49.236;8.398;2022-09-02T16:58:06;0.93;;;0.80;;
50533;SDS011;60631;49.236;8.398;2022-09-02T17:01:10;1.52;;;0.70;;
50533;SDS011;60631;49.236;8.398;2022-09-02T17:04:11;2.92;;;0.70;;
50533;SDS011;60631;49.236;8.398;2022-09-02T17:07:12;1.40;;;0.90;;
50533;SDS011;60631;49.236;8.398;2022-09-02T17:10:13;0.98;;;0.80;;
50533;SDS011;60631;49.236;8.398;2022-09-02T17:13:14;0.95;;;0.90;;
50533;SDS011;60631;49.236;8.398;2022-09-02T17:16:16;3.22;;;1.10;;
50533;SDS011;60631;49.236;8.398;2022-09-02T17:19:18;3.10;;;1.23;;
50533;SDS011;60631;49.236;8.398;2022-09-02T17:22:23;2.75;;;1.00;;
50533;SDS011;60631;49.236;8.398;2022-09-02T17:25:24;1.00;;;0.80;;
50533;SDS011;60631;49.236;8.398;2022-09-02T17:28:25;1.30;;;0.80;;
50533;SDS011;60631;49.236;8.398;2022-09-02T17:31:27;1.15;;;0.90;;
50533;SDS011;60631;49.236;8.398;2022-09-02T17:34:29;1.58;;;0.65;;
50533;SDS011;60631;49.236;8.398;2022-09-02T17:37:33;2.30;;;0.80;;
50533;SDS011;60631;49.236;8.398;2022-09-02T17:40:37;1.35;;;0.90;;
50533;SDS011;60631;49.236;8.398;2022-09-02T17:43:56;1.00;;;0.90;;
50533;SDS011;60631;49.236;8.398;2022-09-02T17:46:57;1.05;;;0.95;;
50533;SDS011;60631;49.236;8.398;2022-09-02T17:49:59;0.90;;;0.90;;
50533;SDS011;60631;49.236;8.398;2022-09-02T17:53:00;1.38;;;1.27;;
50533;SDS011;60631;49.236;8.398;2022-09-02T17:56:16;1.70;;;0.93;;
50533;SDS011;60631;49.236;8.398;2022-09-02T17:59:26;3.78;;;1.10;;
50533;SDS011;60631;49.236;8.398;2022-09-02T18:09:04;1.20;;;1.10;;
50533;SDS011;60631;49.236;8.398;2022-09-02T18:12:06;2.13;;;1.20;;
50533;SDS011;60631;49.236;8.398;2022-09-02T18:15:09;1.10;;;1.00;;
50533;SDS011;60631;49.236;8.398;2022-09-02T18:18:15;1.60;;;1.05;;
50533;SDS011;60631;49.236;8.398;2022-09-02T18:21:26;1.85;;;0.90;;
50533;SDS011;60631;49.236;8.398;2022-09-02T18:40:49;2.38;;;0.90;;
50533;SDS011;60631;49.236;8.398;2022-09-02T18:44:17;4.00;;;1.10;;
50533;SDS011;60631;49.236;8.398;2022-09-02T18:47:31;2.00;;;1.08;;
50533;SDS011;60631;49.236;8.398;2022-09-02T18:50:39;2.15;;;0.98;;
50533;SDS011;60631;49.236;8.398;2022-09-02T18:53:45;2.10;;;0.88;;
50533;SDS011;60631;49.236;8.398;2022-09-02T18:56:50;1.85;;;0.90;;
50533;SDS011;60631;49.236;8.398;2022-09-02T19:00:06;0.85;;;0.80;;
50533;SDS011;60631;49.236;8.398;2022-09-02T19:03:09;1.00;;;0.90;;
50533;SDS011;60631;49.236;8.398;2022-09-02T19:06:14;1.15;;;0.80;;
50533;SDS011;60631;49.236;8.398;2022-09-02T19:09:19;1.00;;;0.90;;
50533;SDS011;60631;49.236;8.398;2022-09-02T19:15:27;2.33;;;0.93;;
50533;SDS011;60631;49.236;8.398;2022-09-02T19:18:28;1.10;;;1.00;;
50533;SDS011;60631;49.236;8.398;2022-09-02T19:21:33;1.10;;;1.00;;
50533;SDS011;60631;49.236;8.398;2022-09-02T19:24:42;1.00;;;0.90;;
50533;SDS011;60631;49.236;8.398;2022-09-02T19:27:48;1.13;;;0.90;;
50533;SDS011;60631;49.236;8.398;2022-09-02T19:30:51;2.35;;;1.00;;
50533;SDS011;60631;49.236;8.398;2022-09-02T19:33:53;1.75;;;0.90;;
50533;SDS011;60631;49.236;8.398;2022-09-02T19:36:56;2.50;;;0.90;;
50533;SDS011;60631;49.236;8.398;2022-09-02T19:39:57;0.98;;;0.90;;
50533;SDS011;60631;49.236;8.398;2022-09-02T19:42:59;2.00;;;1.00;;
50533;SDS011;60631;49.236;8.398;2022-09-02T19:46:03;0.85;;;0.85;;
50533;SDS011;60631;49.236;8.398;2022-09-02T19:49:04;1.13;;;1.00;;
50533;SDS011;60631;49.236;8.398;2022-09-02T19:52:05;1.67;;;1.00;;
50533;SDS011;60631;49.236;8.398;2022-09-02T19:55:07;1.25;;;0.90;;
50533;SDS011;60631;49.236;8.398;2022-09-02T19:58:09;1.15;;;1.05;;
50533;SDS011;60631;49.236;8.398;2022-09-02T20:01:10;1.73;;;0.95;;
50533;SDS011;60631;49.236;8.398;2022-09-02T20:04:11;1.65;;;0.90;;
50533;SDS011;60631;49.236;8.398;2022-09-02T20:07:12;1.98;;;1.30;;
50533;SDS011;60631;49.236;8.398;2022-09-02T20:10:13;1.05;;;0.90;;
50533;SDS011;60631;49.236;8.398;2022-09-02T20:13:14;0.95;;;0.90;;
50533;SDS011;60631;49.236;8.398;2022-09-02T20:16:17;0.98;;;0.98;;
50533;SDS011;60631;49.236;8.398;2022-09-02T20:19:22;2.80;;;1.20;;
50533;SDS011;60631;49.236;8.398;2022-09-02T20:22:23;2.10;;;1.10;;
50533;SDS011;60631;49.236;8.398;2022-09-02T20:25:28;2.03;;;1.10;;
50533;SDS011;60631;49.236;8.398;2022-09-02T20:51:37;1.20;;;1.10;;
50533;SDS011;60631;49.236;8.398;2022-09-02T20:55:02;1.73;;;1.00;;
50533;SDS011;60631;49.236;8.398;2022-09-02T21:01:29;1.30;;;1.20;;
50533;SDS011;60631;49.236;8.398;2022-09-02T21:04:33;1.25;;;1.15;;
50533;SDS011;60631;49.236;8.398;2022-09-02T21:07:40;1.70;;;1.30;;
50533;SDS011;60631;49.236;8.398;2022-09-02T21:10:45;2.85;;;1.33;;
50533;SDS011;60631;49.236;8.398;2022-09-02T21:13:50;1.77;;;1.15;;
50533;SDS011;60631;49.236;8.398;2022-09-02T21:24:10;1.30;;;1.10;;
50533;SDS011;60631;49.236;8.398;2022-09-02T21:27:19;2.10;;;1.20;;
50533;SDS011;60631;49.236;8.398;2022-09-02T21:30:24;1.45;;;1.27;;
50533;SDS011;60631;49.236;8.398;2022-09-02T21:33:27;3.20;;;1.30;;
50533;SDS011;60631;49.236;8.398;2022-09-02T21:36:29;1.30;;;1.20;;
50533;SDS011;60631;49.236;8.398;2022-09-02T21:39:33;1.83;;;1.10;;